createdAt,value
2018-11-07T00:00:22.210Z,63.70
2018-11-07T00:00:55.748Z,63.80
2018-11-07T00:01:29.727Z,63.60
2018-11-07T00:02:03.276Z,63.70
2018-11-07T00:02:36.798Z,63.60
2018-11-07T00:03:10.505Z,63.50
2018-11-07T00:03:44.080Z,63.50
2018-11-07T00:04:17.768Z,63.40
2018-11-07T00:04:51.249Z,63.50
2018-11-07T00:05:24.745Z,63.40
2018-11-07T00:05:58.214Z,63.50
2018-11-07T00:06:31.717Z,63.40
2018-11-07T00:07:05.518Z,63.40
2018-11-07T00:07:39.043Z,63.50
2018-11-07T00:08:12.711Z,63.50
2018-11-07T00:08:46.211Z,63.60
2018-11-07T00:09:19.655Z,63.50
2018-11-07T00:09:53.171Z,63.50
2018-11-07T00:10:27.288Z,63.60
2018-11-07T00:11:00.763Z,63.60
2018-11-07T00:11:34.228Z,63.70
2018-11-07T00:12:07.806Z,63.60
2018-11-07T00:12:41.315Z,63.70
2018-11-07T00:13:14.836Z,63.70
2018-11-07T00:13:48.463Z,63.60
2018-11-07T00:14:22.055Z,63.60
2018-11-07T00:14:55.602Z,63.60
2018-11-07T00:15:30.052Z,63.60
2018-11-07T00:16:03.720Z,63.60
2018-11-07T00:16:37.500Z,63.20
2018-11-07T00:17:11.011Z,63.20
2018-11-07T00:17:44.517Z,63.20
2018-11-07T00:18:17.969Z,63.20
2018-11-07T00:18:51.437Z,63.20
2018-11-07T00:19:24.963Z,63.20
2018-11-07T00:19:58.447Z,63.10
2018-11-07T00:20:31.956Z,63.10
2018-11-07T00:21:05.474Z,63.10
2018-11-07T00:21:38.999Z,63.10
2018-11-07T00:22:12.485Z,63.20
2018-11-07T00:22:46.557Z,63.20
2018-11-07T00:23:20.371Z,63.10
2018-11-07T00:23:54.111Z,63.00
2018-11-07T00:24:27.704Z,63.10
2018-11-07T00:25:02.162Z,63.70
2018-11-07T00:25:35.752Z,63.00
2018-11-07T00:26:09.308Z,62.90
2018-11-07T00:26:42.801Z,62.90
2018-11-07T00:27:16.230Z,62.80
2018-11-07T00:27:49.728Z,62.90
2018-11-07T00:28:23.213Z,63.00
2018-11-07T00:28:56.749Z,62.90
2018-11-07T00:29:30.351Z,63.00
2018-11-07T00:30:03.980Z,63.00
2018-11-07T00:30:37.766Z,62.80
2018-11-07T00:31:11.292Z,62.80
2018-11-07T00:31:44.756Z,62.90
2018-11-07T00:32:18.215Z,62.80
2018-11-07T00:32:51.720Z,63.30
2018-11-07T00:33:25.169Z,63.40
2018-11-07T00:33:58.652Z,62.70
2018-11-07T00:34:32.128Z,62.60
2018-11-07T00:35:06.269Z,62.70
2018-11-07T00:35:39.737Z,62.50
2018-11-07T00:36:13.251Z,63.10
2018-11-07T00:36:47.418Z,62.40
2018-11-07T00:37:20.899Z,62.50
2018-11-07T00:37:54.516Z,62.10
2018-11-07T00:38:28.008Z,62.40
2018-11-07T00:39:01.455Z,62.30
2018-11-07T00:39:34.870Z,62.30
2018-11-07T00:40:08.413Z,62.30
2018-11-07T00:40:41.973Z,62.40
2018-11-07T00:41:15.442Z,62.40
2018-11-07T00:41:48.950Z,62.40
2018-11-07T00:42:22.550Z,62.30
2018-11-07T00:42:56.250Z,62.20
2018-11-07T00:43:29.694Z,62.30
2018-11-07T00:44:03.566Z,62.30
2018-11-07T00:44:37.298Z,62.20
2018-11-07T00:45:12.473Z,62.20
2018-11-07T00:45:45.907Z,62.40
2018-11-07T00:46:19.504Z,62.10
2018-11-07T00:46:53.011Z,62.30
2018-11-07T00:47:27.144Z,62.20
2018-11-07T00:48:00.914Z,62.20
2018-11-07T00:48:34.398Z,62.20
2018-11-07T00:49:07.859Z,62.10
2018-11-07T00:49:41.395Z,62.10
2018-11-07T00:50:16.292Z,62.00
2018-11-07T00:50:49.742Z,62.20
2018-11-07T00:51:23.215Z,62.20
2018-11-07T00:51:56.797Z,62.20
2018-11-07T00:52:30.350Z,62.00
2018-11-07T00:53:03.834Z,61.90
2018-11-07T00:53:37.391Z,62.00
2018-11-07T00:54:10.862Z,61.90
2018-11-07T00:54:44.449Z,62.00
2018-11-07T00:55:17.937Z,61.90
2018-11-07T00:55:51.363Z,62.00
2018-11-07T00:56:24.867Z,62.20
2018-11-07T00:56:58.390Z,62.20
2018-11-07T00:57:31.847Z,62.40
2018-11-07T00:58:05.615Z,62.30
2018-11-07T00:58:39.112Z,62.30
2018-11-07T00:59:12.598Z,62.20
2018-11-07T00:59:46.072Z,61.90
2018-11-07T01:00:20.409Z,62.50
2018-11-07T01:00:53.871Z,62.10
2018-11-07T01:01:33.533Z,62.10
2018-11-07T01:02:07.005Z,62.00
2018-11-07T01:02:40.505Z,62.20
2018-11-07T01:03:13.958Z,62.00
2018-11-07T01:03:47.563Z,62.20
2018-11-07T01:04:20.993Z,62.20
2018-11-07T01:04:54.455Z,62.00
2018-11-07T01:05:27.948Z,61.90
2018-11-07T01:06:01.451Z,61.80
2018-11-07T01:06:35.447Z,61.90
2018-11-07T01:07:08.972Z,62.10
2018-11-07T01:07:43.722Z,62.20
2018-11-07T01:08:17.204Z,62.20
2018-11-07T01:08:50.894Z,62.20
2018-11-07T01:09:24.356Z,62.30
2018-11-07T01:09:57.863Z,62.10
2018-11-07T01:10:31.332Z,61.90
2018-11-07T01:11:05.280Z,61.90
2018-11-07T01:11:38.966Z,61.80
2018-11-07T01:12:12.432Z,61.70
2018-11-07T01:12:45.975Z,61.80
2018-11-07T01:13:19.478Z,62.00
2018-11-07T01:13:53.007Z,62.00
2018-11-07T01:14:26.472Z,61.90
2018-11-07T01:15:00.006Z,61.80
2018-11-07T01:15:33.461Z,61.90
2018-11-07T01:16:07.056Z,62.00
2018-11-07T01:16:41.379Z,61.90
2018-11-07T01:17:14.907Z,61.70
2018-11-07T01:17:48.455Z,61.70
2018-11-07T01:18:21.927Z,61.50
2018-11-07T01:18:55.452Z,62.30
2018-11-07T01:19:28.924Z,62.30
2018-11-07T01:20:02.420Z,61.50
2018-11-07T01:20:35.899Z,61.50
2018-11-07T01:21:09.387Z,61.50
2018-11-07T01:21:42.907Z,61.50
2018-11-07T01:22:16.512Z,61.50
2018-11-07T01:22:49.978Z,61.40
2018-11-07T01:23:23.484Z,61.40
2018-11-07T01:23:56.973Z,61.30
2018-11-07T01:24:31.226Z,61.30
2018-11-07T01:25:05.763Z,61.20
2018-11-07T01:25:39.288Z,61.30
2018-11-07T01:26:12.770Z,61.30
2018-11-07T01:26:46.890Z,61.40
2018-11-07T01:27:20.438Z,61.30
2018-11-07T01:27:53.904Z,61.50
2018-11-07T01:28:27.388Z,61.30
2018-11-07T01:29:00.863Z,61.30
2018-11-07T01:29:34.381Z,61.30
2018-11-07T01:30:09.886Z,61.20
2018-11-07T01:30:43.425Z,61.20
2018-11-07T01:31:16.942Z,61.30
2018-11-07T01:31:50.378Z,61.30
2018-11-07T01:32:23.855Z,61.40
2018-11-07T01:32:57.328Z,61.40
2018-11-07T01:33:31.009Z,61.40
2018-11-07T01:34:05.412Z,61.30
2018-11-07T01:34:38.899Z,61.40
2018-11-07T01:35:12.388Z,61.40
2018-11-07T01:35:45.956Z,61.40
2018-11-07T01:36:19.430Z,61.20
2018-11-07T01:36:52.990Z,61.20
2018-11-07T01:37:26.509Z,61.30
2018-11-07T01:37:59.975Z,61.40
2018-11-07T01:38:33.491Z,61.30
2018-11-07T01:39:08.907Z,61.40
2018-11-07T01:39:42.392Z,61.40
2018-11-07T01:40:15.915Z,61.40
2018-11-07T01:40:49.411Z,61.30
2018-11-07T01:41:22.920Z,61.30
2018-11-07T01:41:56.467Z,61.50
2018-11-07T01:42:30.610Z,61.40
2018-11-07T01:43:04.153Z,61.50
2018-11-07T01:43:37.647Z,61.80
2018-11-07T01:44:11.123Z,61.70
2018-11-07T01:44:44.624Z,61.70
2018-11-07T01:45:18.307Z,61.70
2018-11-07T01:45:51.850Z,61.50
2018-11-07T01:46:25.290Z,61.60
2018-11-07T01:46:58.812Z,61.60
2018-11-07T01:47:32.407Z,61.60
2018-11-07T01:48:06.052Z,61.60
2018-11-07T01:48:39.599Z,61.60
2018-11-07T01:49:13.076Z,61.60
2018-11-07T01:49:46.571Z,61.80
2018-11-07T01:50:20.264Z,62.00
2018-11-07T01:50:53.725Z,62.00
2018-11-07T01:51:27.228Z,61.90
2018-11-07T01:52:00.702Z,61.90
2018-11-07T01:52:34.175Z,61.80
2018-11-07T01:53:07.684Z,61.60
2018-11-07T01:53:41.112Z,61.70
2018-11-07T01:54:15.505Z,61.60
2018-11-07T01:54:48.993Z,61.70
2018-11-07T01:55:22.486Z,61.70
2018-11-07T01:55:55.967Z,61.60
2018-11-07T01:56:29.490Z,61.80
2018-11-07T01:57:02.919Z,61.90
2018-11-07T01:57:36.464Z,62.10
2018-11-07T01:58:10.007Z,62.30
2018-11-07T01:58:43.527Z,62.20
2018-11-07T01:59:29.804Z,62.30
2018-11-07T02:00:03.668Z,63.00
2018-11-07T02:00:37.514Z,62.00
2018-11-07T02:01:10.975Z,62.00
2018-11-07T02:01:44.477Z,62.10
2018-11-07T02:02:18.030Z,62.00
2018-11-07T02:02:51.628Z,61.90
2018-11-07T02:03:25.151Z,61.90
2018-11-07T02:03:58.603Z,62.00
2018-11-07T02:04:32.124Z,62.10
2018-11-07T02:05:06.262Z,62.10
2018-11-07T02:05:39.805Z,62.20
2018-11-07T02:06:13.246Z,62.20
2018-11-07T02:06:46.828Z,62.80
2018-11-07T02:07:20.287Z,62.10
2018-11-07T02:07:53.999Z,62.20
2018-11-07T02:08:31.481Z,62.20
2018-11-07T02:09:07.689Z,62.10
2018-11-07T02:09:41.140Z,62.10
2018-11-07T02:10:14.649Z,62.10
2018-11-07T02:10:48.180Z,62.00
2018-11-07T02:11:21.660Z,62.10
2018-11-07T02:11:55.168Z,62.10
2018-11-07T02:12:28.676Z,62.20
2018-11-07T02:13:02.099Z,62.30
2018-11-07T02:13:35.636Z,62.40
2018-11-07T02:14:09.091Z,62.40
2018-11-07T02:14:42.510Z,62.50
2018-11-07T02:15:15.971Z,62.50
2018-11-07T02:15:49.535Z,62.60
2018-11-07T02:16:23.635Z,62.50
2018-11-07T02:16:57.177Z,62.50
2018-11-07T02:17:30.708Z,62.50
2018-11-07T02:18:05.487Z,63.30
2018-11-07T02:18:39.016Z,62.70
2018-11-07T02:19:12.516Z,62.50
2018-11-07T02:19:45.985Z,62.60
2018-11-07T02:20:19.433Z,62.60
2018-11-07T02:20:52.895Z,62.70
2018-11-07T02:21:26.376Z,62.70
2018-11-07T02:21:59.838Z,62.70
2018-11-07T02:22:33.263Z,62.70
2018-11-07T02:23:06.795Z,62.70
2018-11-07T02:23:40.302Z,62.90
2018-11-07T02:24:14.524Z,62.80
2018-11-07T02:24:47.986Z,62.90
2018-11-07T02:25:21.448Z,62.80
2018-11-07T02:25:54.925Z,62.60
2018-11-07T02:26:28.535Z,62.70
2018-11-07T02:27:01.997Z,62.70
2018-11-07T02:27:35.476Z,63.00
2018-11-07T02:28:09.011Z,62.90
2018-11-07T02:28:43.140Z,62.90
2018-11-07T02:29:16.627Z,62.90
2018-11-07T02:29:50.092Z,62.90
2018-11-07T02:30:23.612Z,62.90
2018-11-07T02:30:57.169Z,63.00
2018-11-07T02:31:30.654Z,63.00
2018-11-07T02:32:04.205Z,63.00
2018-11-07T02:32:37.789Z,63.10
2018-11-07T02:33:12.048Z,63.00
2018-11-07T02:33:45.542Z,63.00
2018-11-07T02:34:19.014Z,63.00
2018-11-07T02:34:52.520Z,63.00
2018-11-07T02:35:26.014Z,63.00
2018-11-07T02:35:59.552Z,62.80
2018-11-07T02:36:33.076Z,62.90
2018-11-07T02:37:06.634Z,63.00
2018-11-07T02:37:40.377Z,63.10
2018-11-07T02:38:13.830Z,63.20
2018-11-07T02:38:47.358Z,63.20
2018-11-07T02:39:20.834Z,63.20
2018-11-07T02:39:54.282Z,63.20
2018-11-07T02:40:27.762Z,63.20
2018-11-07T02:41:01.259Z,63.10
2018-11-07T02:41:34.760Z,63.20
2018-11-07T02:42:08.262Z,63.20
2018-11-07T02:42:41.804Z,63.10
2018-11-07T02:43:15.362Z,63.20
2018-11-07T02:43:48.998Z,63.10
2018-11-07T02:44:22.537Z,63.10
2018-11-07T02:44:56.068Z,63.00
2018-11-07T02:45:29.782Z,63.00
2018-11-07T02:46:04.006Z,63.20
2018-11-07T02:46:37.622Z,63.20
2018-11-07T02:47:11.070Z,63.20
2018-11-07T02:47:44.541Z,63.20
2018-11-07T02:48:18.013Z,63.00
2018-11-07T02:48:51.539Z,63.00
2018-11-07T02:49:25.000Z,62.80
2018-11-07T02:49:58.458Z,62.90
2018-11-07T02:50:31.928Z,62.80
2018-11-07T02:51:05.896Z,62.90
2018-11-07T02:51:39.859Z,62.90
2018-11-07T02:52:14.265Z,62.80
2018-11-07T02:52:47.757Z,62.90
2018-11-07T02:53:21.287Z,63.00
2018-11-07T02:53:55.466Z,62.90
2018-11-07T02:54:28.977Z,63.00
2018-11-07T02:55:02.720Z,63.10
2018-11-07T02:55:36.203Z,64.00
2018-11-07T02:56:09.733Z,63.30
2018-11-07T02:56:43.279Z,63.20
2018-11-07T02:57:16.762Z,63.20
2018-11-07T02:57:50.299Z,63.20
2018-11-07T02:58:23.833Z,63.20
2018-11-07T02:58:58.064Z,63.30
2018-11-07T02:59:31.572Z,63.40
2018-11-07T03:00:06.933Z,63.40
2018-11-07T03:00:40.504Z,64.10
2018-11-07T03:01:14.042Z,63.30
2018-11-07T03:01:47.532Z,63.30
2018-11-07T03:02:21.136Z,63.30
2018-11-07T03:02:54.581Z,63.30
2018-11-07T03:03:28.022Z,63.20
2018-11-07T03:04:01.543Z,63.30
2018-11-07T03:04:35.080Z,63.10
2018-11-07T03:05:09.351Z,63.40
2018-11-07T03:05:42.805Z,63.40
2018-11-07T03:06:16.341Z,63.30
2018-11-07T03:06:49.870Z,63.40
2018-11-07T03:07:23.395Z,63.40
2018-11-07T03:07:56.875Z,63.30
2018-11-07T03:08:32.288Z,63.30
2018-11-07T03:09:08.391Z,63.20
2018-11-07T03:09:42.203Z,63.30
2018-11-07T03:10:16.307Z,63.10
2018-11-07T03:10:49.787Z,63.20
2018-11-07T03:11:23.221Z,63.30
2018-11-07T03:11:56.674Z,63.40
2018-11-07T03:12:30.295Z,63.30
2018-11-07T03:13:03.777Z,63.40
2018-11-07T03:13:37.308Z,63.40
2018-11-07T03:14:10.766Z,63.40
2018-11-07T03:14:44.311Z,64.30
2018-11-07T03:15:17.903Z,63.60
2018-11-07T03:15:51.446Z,63.70
2018-11-07T03:16:24.932Z,63.80
2018-11-07T03:16:58.372Z,63.70
2018-11-07T03:17:31.947Z,63.70
2018-11-07T03:18:06.027Z,63.80
2018-11-07T03:18:39.584Z,63.90
2018-11-07T03:19:12.986Z,63.70
2018-11-07T03:19:46.514Z,63.80
2018-11-07T03:20:20.020Z,63.70
2018-11-07T03:20:53.499Z,63.60
2018-11-07T03:21:27.027Z,63.70
2018-11-07T03:22:00.485Z,63.60
2018-11-07T03:22:33.974Z,64.40
2018-11-07T03:23:07.469Z,63.70
2018-11-07T03:23:41.216Z,63.60
2018-11-07T03:24:14.740Z,63.50
2018-11-07T03:24:48.277Z,63.60
2018-11-07T03:25:21.763Z,63.60
2018-11-07T03:25:55.213Z,63.60
2018-11-07T03:26:28.661Z,63.50
2018-11-07T03:27:02.180Z,63.30
2018-11-07T03:27:35.794Z,63.10
2018-11-07T03:28:09.266Z,63.00
2018-11-07T03:28:42.720Z,63.10
2018-11-07T03:29:16.172Z,63.10
2018-11-07T03:29:49.682Z,63.00
2018-11-07T03:30:23.146Z,63.10
2018-11-07T03:30:57.257Z,63.10
2018-11-07T03:31:30.855Z,63.10
2018-11-07T03:32:05.160Z,63.10
2018-11-07T03:32:38.732Z,62.90
2018-11-07T03:33:12.255Z,62.90
2018-11-07T03:33:45.850Z,62.90
2018-11-07T03:34:19.313Z,62.90
2018-11-07T03:34:52.846Z,63.00
2018-11-07T03:35:29.311Z,62.90
2018-11-07T03:36:03.548Z,62.80
2018-11-07T03:36:37.438Z,62.80
2018-11-07T03:37:10.925Z,62.80
2018-11-07T03:37:44.603Z,62.80
2018-11-07T03:38:18.046Z,62.80
2018-11-07T03:38:51.512Z,62.90
2018-11-07T03:39:25.006Z,63.00
2018-11-07T03:39:58.598Z,63.00
2018-11-07T03:40:32.008Z,63.20
2018-11-07T03:41:05.510Z,63.10
2018-11-07T03:41:39.899Z,63.00
2018-11-07T03:42:13.871Z,63.10
2018-11-07T03:42:47.380Z,63.10
2018-11-07T03:43:20.872Z,63.10
2018-11-07T03:43:54.386Z,63.20
2018-11-07T03:44:27.896Z,63.30
2018-11-07T03:45:01.397Z,63.30
2018-11-07T03:45:40.008Z,63.30
2018-11-07T03:46:13.464Z,63.30
2018-11-07T03:46:46.976Z,63.30
2018-11-07T03:47:21.607Z,63.30
2018-11-07T03:47:55.140Z,63.40
2018-11-07T03:48:30.139Z,63.50
2018-11-07T03:49:03.681Z,63.50
2018-11-07T03:49:37.227Z,63.40
2018-11-07T03:50:10.754Z,63.50
2018-11-07T03:50:44.266Z,63.50
2018-11-07T03:51:17.795Z,63.50
2018-11-07T03:51:51.421Z,63.50
2018-11-07T03:52:24.903Z,63.60
2018-11-07T03:52:58.460Z,63.50
2018-11-07T03:53:31.904Z,63.50
2018-11-07T03:54:05.474Z,63.50
2018-11-07T03:54:39.051Z,63.60
2018-11-07T03:55:12.515Z,63.50
2018-11-07T03:55:46.016Z,63.50
2018-11-07T03:56:19.499Z,63.40
2018-11-07T03:56:53.030Z,63.40
2018-11-07T03:57:26.526Z,63.40
2018-11-07T03:58:00.023Z,63.30
2018-11-07T03:58:33.513Z,63.30
2018-11-07T03:59:06.952Z,63.30
2018-11-07T03:59:40.447Z,63.40
2018-11-07T04:00:13.990Z,63.20
2018-11-07T04:00:47.537Z,63.20
2018-11-07T04:01:21.014Z,63.30
2018-11-07T04:01:54.602Z,63.10
2018-11-07T04:02:28.317Z,63.10
2018-11-07T04:03:01.757Z,63.40
2018-11-07T04:03:35.530Z,63.20
2018-11-07T04:04:09.062Z,63.10
2018-11-07T04:04:42.631Z,63.10
2018-11-07T04:05:16.071Z,62.90
2018-11-07T04:05:49.537Z,63.10
2018-11-07T04:06:22.997Z,63.10
2018-11-07T04:06:56.585Z,63.10
2018-11-07T04:07:30.124Z,63.20
2018-11-07T04:08:03.646Z,63.20
2018-11-07T04:08:37.465Z,63.10
2018-11-07T04:09:12.463Z,63.10
2018-11-07T04:09:45.983Z,63.00
2018-11-07T04:10:19.498Z,63.00
2018-11-07T04:10:53.040Z,62.90
2018-11-07T04:11:26.510Z,63.00
2018-11-07T04:12:00.054Z,63.00
2018-11-07T04:12:33.579Z,63.10
2018-11-07T04:13:07.108Z,63.10
2018-11-07T04:13:40.535Z,62.90
2018-11-07T04:14:14.060Z,62.90
2018-11-07T04:14:47.535Z,63.20
2018-11-07T04:15:21.022Z,63.10
2018-11-07T04:15:54.503Z,63.30
2018-11-07T04:16:28.078Z,63.20
2018-11-07T04:17:01.653Z,63.20
2018-11-07T04:17:35.173Z,63.00
2018-11-07T04:18:08.652Z,63.00
2018-11-07T04:18:42.192Z,63.00
2018-11-07T04:19:15.740Z,62.90
2018-11-07T04:19:49.193Z,63.00
2018-11-07T04:20:22.807Z,62.90
2018-11-07T04:20:56.305Z,63.20
2018-11-07T04:21:29.861Z,62.90
2018-11-07T04:22:03.381Z,62.90
2018-11-07T04:22:38.057Z,63.10
2018-11-07T04:23:11.541Z,63.40
2018-11-07T04:23:50.380Z,63.10
2018-11-07T04:24:23.892Z,63.10
2018-11-07T04:24:57.520Z,63.20
2018-11-07T04:25:31.019Z,63.10
2018-11-07T04:26:05.729Z,63.20
2018-11-07T04:26:39.312Z,63.30
2018-11-07T04:27:12.794Z,63.40
2018-11-07T04:27:46.240Z,63.50
2018-11-07T04:28:19.725Z,63.40
2018-11-07T04:28:53.257Z,63.30
2018-11-07T04:29:26.910Z,64.00
2018-11-07T04:30:00.404Z,63.60
2018-11-07T04:30:33.867Z,63.50
2018-11-07T04:31:07.373Z,63.60
2018-11-07T04:31:40.810Z,63.60
2018-11-07T04:32:14.280Z,63.50
2018-11-07T04:32:47.797Z,63.40
2018-11-07T04:33:21.252Z,63.40
2018-11-07T04:33:54.676Z,63.30
2018-11-07T04:34:28.160Z,63.30
2018-11-07T04:35:01.663Z,63.40
2018-11-07T04:35:35.248Z,63.40
2018-11-07T04:36:08.769Z,63.50
2018-11-07T04:36:42.263Z,63.50
2018-11-07T04:37:15.704Z,63.50
2018-11-07T04:37:49.190Z,63.50
2018-11-07T04:38:29.303Z,63.50
2018-11-07T04:39:02.924Z,63.70
2018-11-07T04:39:36.408Z,63.50
2018-11-07T04:40:11.492Z,63.60
2018-11-07T04:40:44.960Z,63.70
2018-11-07T04:41:18.464Z,63.60
2018-11-07T04:41:51.930Z,63.60
2018-11-07T04:42:25.987Z,63.40
2018-11-07T04:42:59.425Z,63.40
2018-11-07T04:43:33.533Z,63.40
2018-11-07T04:44:06.975Z,63.60
2018-11-07T04:44:40.430Z,63.50
2018-11-07T04:45:13.952Z,63.40
2018-11-07T04:45:47.367Z,63.40
2018-11-07T04:46:20.814Z,63.60
2018-11-07T04:46:55.852Z,63.40
2018-11-07T04:47:29.484Z,63.60
2018-11-07T04:48:02.966Z,63.50
2018-11-07T04:48:36.479Z,63.60
2018-11-07T04:49:10.013Z,63.60
2018-11-07T04:49:43.502Z,63.60
2018-11-07T04:50:16.972Z,63.50
2018-11-07T04:50:50.540Z,63.60
2018-11-07T04:51:24.334Z,63.50
2018-11-07T04:51:57.849Z,63.70
2018-11-07T04:52:31.416Z,63.60
2018-11-07T04:53:05.057Z,63.70
2018-11-07T04:53:38.667Z,63.70
2018-11-07T04:54:12.268Z,63.80
2018-11-07T04:54:45.772Z,63.80
2018-11-07T04:55:19.282Z,63.70
2018-11-07T04:55:52.793Z,63.70
2018-11-07T04:56:26.253Z,63.70
2018-11-07T04:56:59.752Z,63.90
2018-11-07T04:57:33.216Z,63.80
2018-11-07T04:58:06.708Z,64.00
2018-11-07T04:58:40.809Z,64.00
2018-11-07T04:59:15.049Z,64.00
2018-11-07T04:59:48.556Z,64.30
2018-11-07T05:00:22.202Z,64.10
2018-11-07T05:00:55.684Z,64.10
2018-11-07T05:01:29.221Z,64.20
2018-11-07T05:02:02.744Z,64.80
2018-11-07T05:02:36.354Z,64.10
2018-11-07T05:03:09.886Z,64.00
2018-11-07T05:03:43.819Z,63.90
2018-11-07T05:04:17.342Z,63.80
2018-11-07T05:04:50.846Z,63.70
2018-11-07T05:05:24.352Z,63.70
2018-11-07T05:05:57.826Z,63.60
2018-11-07T05:06:31.335Z,63.70
2018-11-07T05:07:04.857Z,63.60
2018-11-07T05:07:39.296Z,63.50
2018-11-07T05:08:12.735Z,63.50
2018-11-07T05:08:46.393Z,63.70
2018-11-07T05:09:19.864Z,63.80
2018-11-07T05:09:53.340Z,63.80
2018-11-07T05:10:26.853Z,63.60
2018-11-07T05:11:00.321Z,63.60
2018-11-07T05:11:33.818Z,63.50
2018-11-07T05:12:07.279Z,63.60
2018-11-07T05:12:40.893Z,63.40
2018-11-07T05:13:14.367Z,63.20
2018-11-07T05:13:47.821Z,63.10
2018-11-07T05:14:21.412Z,63.10
2018-11-07T05:14:55.849Z,63.20
2018-11-07T05:15:29.384Z,63.40
2018-11-07T05:16:02.971Z,63.40
2018-11-07T05:16:36.483Z,63.00
2018-11-07T05:17:09.990Z,63.00
2018-11-07T05:17:43.554Z,63.00
2018-11-07T05:18:17.099Z,63.10
2018-11-07T05:18:50.597Z,63.20
2018-11-07T05:19:24.057Z,63.20
2018-11-07T05:19:57.541Z,63.40
2018-11-07T05:20:31.075Z,63.20
2018-11-07T05:21:04.593Z,63.10
2018-11-07T05:21:38.054Z,63.20
2018-11-07T05:22:11.877Z,63.00
2018-11-07T05:22:45.400Z,62.90
2018-11-07T05:23:18.861Z,63.10
2018-11-07T05:23:52.380Z,63.10
2018-11-07T05:24:25.888Z,63.10
2018-11-07T05:24:59.350Z,63.10
2018-11-07T05:25:32.980Z,63.10
2018-11-07T05:26:06.558Z,63.20
2018-11-07T05:26:40.789Z,63.30
2018-11-07T05:27:14.319Z,63.10
2018-11-07T05:27:47.772Z,63.10
2018-11-07T05:28:21.502Z,63.10
2018-11-07T05:28:54.986Z,63.10
2018-11-07T05:29:28.545Z,63.10
2018-11-07T05:30:02.315Z,63.00
2018-11-07T05:30:35.779Z,63.00
2018-11-07T05:31:09.310Z,63.00
2018-11-07T05:31:42.831Z,63.20
2018-11-07T05:32:16.315Z,63.30
2018-11-07T05:32:49.808Z,63.30
2018-11-07T05:33:23.325Z,63.30
2018-11-07T05:33:56.838Z,63.40
2018-11-07T05:34:30.386Z,63.20
2018-11-07T05:35:03.904Z,63.10
2018-11-07T05:35:37.426Z,63.10
2018-11-07T05:36:10.979Z,63.10
2018-11-07T05:36:44.480Z,63.10
2018-11-07T05:37:17.968Z,63.20
2018-11-07T05:37:51.450Z,63.00
2018-11-07T05:38:24.984Z,63.00
2018-11-07T05:38:58.477Z,63.10
2018-11-07T05:39:31.930Z,63.20
2018-11-07T05:40:05.659Z,63.10
2018-11-07T05:40:39.108Z,63.20
2018-11-07T05:41:12.610Z,63.20
2018-11-07T05:41:46.098Z,63.20
2018-11-07T05:42:19.551Z,63.20
2018-11-07T05:42:53.066Z,63.20
2018-11-07T05:43:26.576Z,63.30
2018-11-07T05:44:00.083Z,63.30
2018-11-07T05:44:33.611Z,63.60
2018-11-07T05:45:07.131Z,63.60
2018-11-07T05:45:40.637Z,63.50
2018-11-07T05:46:14.117Z,63.40
2018-11-07T05:46:47.606Z,63.50
2018-11-07T05:47:21.034Z,63.50
2018-11-07T05:47:54.625Z,63.40
2018-11-07T05:48:28.119Z,63.30
2018-11-07T05:49:01.590Z,63.30
2018-11-07T05:49:35.083Z,63.40
2018-11-07T05:50:09.599Z,63.30
2018-11-07T05:50:43.699Z,63.40
2018-11-07T05:51:17.288Z,63.40
2018-11-07T05:51:50.707Z,63.30
2018-11-07T05:52:24.245Z,63.30
2018-11-07T05:52:57.709Z,63.30
2018-11-07T05:53:31.359Z,63.30
2018-11-07T05:54:05.028Z,63.20
2018-11-07T05:54:38.512Z,63.10
2018-11-07T05:55:12.049Z,63.10
2018-11-07T05:55:45.647Z,63.30
2018-11-07T05:56:19.141Z,63.30
2018-11-07T05:56:52.607Z,63.10
2018-11-07T05:57:26.570Z,63.10
2018-11-07T05:58:00.028Z,63.10
2018-11-07T05:58:34.676Z,63.00
2018-11-07T05:59:08.576Z,62.90
2018-11-07T05:59:42.074Z,63.00
2018-11-07T06:00:15.598Z,63.50
2018-11-07T06:00:49.096Z,64.00
2018-11-07T06:01:22.655Z,63.40
2018-11-07T06:01:56.131Z,63.00
2018-11-07T06:02:29.636Z,63.00
2018-11-07T06:03:03.098Z,63.00
2018-11-07T06:03:36.624Z,63.20
2018-11-07T06:04:10.132Z,63.10
2018-11-07T06:04:44.041Z,63.20
2018-11-07T06:05:17.594Z,63.20
2018-11-07T06:05:51.100Z,63.20
2018-11-07T06:06:24.660Z,63.20
2018-11-07T06:06:58.172Z,63.20
2018-11-07T06:07:32.049Z,63.30
2018-11-07T06:08:05.942Z,63.30
2018-11-07T06:08:39.704Z,63.50
2018-11-07T06:09:13.395Z,64.20
2018-11-07T06:09:46.967Z,63.50
2018-11-07T06:10:20.671Z,63.40
2018-11-07T06:10:54.818Z,63.50
2018-11-07T06:11:28.337Z,63.50
2018-11-07T06:12:01.848Z,63.50
2018-11-07T06:12:35.348Z,63.70
2018-11-07T06:13:08.863Z,63.60
2018-11-07T06:13:43.053Z,63.50
2018-11-07T06:14:17.517Z,63.60
2018-11-07T06:14:51.040Z,63.50
2018-11-07T06:15:24.584Z,63.60
2018-11-07T06:15:58.100Z,63.60
2018-11-07T06:16:31.654Z,63.60
2018-11-07T06:17:05.334Z,63.60
2018-11-07T06:17:38.853Z,63.70
2018-11-07T06:18:12.374Z,63.50
2018-11-07T06:18:46.090Z,63.60
2018-11-07T06:19:19.616Z,63.70
2018-11-07T06:19:53.161Z,63.60
2018-11-07T06:20:26.688Z,63.70
2018-11-07T06:21:00.248Z,63.70
2018-11-07T06:21:34.113Z,63.60
2018-11-07T06:22:08.107Z,63.60
2018-11-07T06:22:41.693Z,63.60
2018-11-07T06:23:15.226Z,63.70
2018-11-07T06:23:48.750Z,63.70
2018-11-07T06:24:22.284Z,63.70
2018-11-07T06:24:55.773Z,63.70
2018-11-07T06:25:29.313Z,63.70
2018-11-07T06:26:02.847Z,63.70
2018-11-07T06:26:36.307Z,63.50
2018-11-07T06:27:09.803Z,63.60
2018-11-07T06:27:43.337Z,63.40
2018-11-07T06:28:17.046Z,63.50
2018-11-07T06:28:50.591Z,63.30
2018-11-07T06:29:24.069Z,63.40
2018-11-07T06:29:57.538Z,63.50
2018-11-07T06:30:31.076Z,63.50
2018-11-07T06:31:05.162Z,63.50
2018-11-07T06:31:38.729Z,63.50
2018-11-07T06:32:12.208Z,63.40
2018-11-07T06:32:45.745Z,63.40
2018-11-07T06:33:19.291Z,63.30
2018-11-07T06:33:52.836Z,63.20
2018-11-07T06:34:26.359Z,63.20
2018-11-07T06:34:59.910Z,64.00
2018-11-07T06:35:33.523Z,63.20
2018-11-07T06:36:07.029Z,63.10
2018-11-07T06:36:40.495Z,63.10
2018-11-07T06:37:14.043Z,63.10
2018-11-07T06:37:47.516Z,63.10
2018-11-07T06:38:21.226Z,63.10
2018-11-07T06:38:54.764Z,63.10
2018-11-07T06:39:28.241Z,63.00
2018-11-07T06:40:01.771Z,63.00
2018-11-07T06:40:35.333Z,63.00
2018-11-07T06:41:08.938Z,63.00
2018-11-07T06:41:43.985Z,63.00
2018-11-07T06:42:17.908Z,63.30
2018-11-07T06:42:52.083Z,63.10
2018-11-07T06:43:25.627Z,63.10
2018-11-07T06:43:59.113Z,63.00
2018-11-07T06:44:32.662Z,63.10
2018-11-07T06:45:06.514Z,63.30
2018-11-07T06:45:40.034Z,63.30
2018-11-07T06:46:13.554Z,63.20
2018-11-07T06:46:47.013Z,63.10
2018-11-07T06:47:20.563Z,63.00
2018-11-07T06:47:54.060Z,63.00
2018-11-07T06:48:27.539Z,63.10
2018-11-07T06:49:01.000Z,63.10
2018-11-07T06:49:34.507Z,63.10
2018-11-07T06:50:10.539Z,63.10
2018-11-07T06:50:44.587Z,63.20
2018-11-07T06:51:18.010Z,63.10
2018-11-07T06:51:51.476Z,63.00
2018-11-07T06:52:24.931Z,62.90
2018-11-07T06:52:58.457Z,62.90
2018-11-07T06:53:31.980Z,62.80
2018-11-07T06:54:05.673Z,62.70
2018-11-07T06:54:39.184Z,62.90
2018-11-07T06:55:12.978Z,62.90
2018-11-07T06:55:46.440Z,62.80
2018-11-07T06:56:19.887Z,62.70
2018-11-07T06:56:53.343Z,62.70
2018-11-07T06:57:26.909Z,62.90
2018-11-07T06:58:00.379Z,62.80
2018-11-07T06:58:33.877Z,62.80
2018-11-07T06:59:07.355Z,62.70
2018-11-07T06:59:40.815Z,62.70
2018-11-07T07:00:16.142Z,62.70
2018-11-07T07:00:49.639Z,62.90
2018-11-07T07:01:23.149Z,62.70
2018-11-07T07:01:56.671Z,62.70
2018-11-07T07:02:30.390Z,62.60
2018-11-07T07:03:04.747Z,62.70
2018-11-07T07:03:38.210Z,62.90
2018-11-07T07:04:11.700Z,62.70
2018-11-07T07:04:45.136Z,62.70
2018-11-07T07:05:18.830Z,62.60
2018-11-07T07:05:52.286Z,62.80
2018-11-07T07:06:25.755Z,62.70
2018-11-07T07:06:59.230Z,62.60
2018-11-07T07:07:32.728Z,62.70
2018-11-07T07:08:06.319Z,62.70
2018-11-07T07:08:40.776Z,62.50
2018-11-07T07:09:14.218Z,63.40
2018-11-07T07:09:47.683Z,62.70
2018-11-07T07:10:21.192Z,62.80
2018-11-07T07:10:54.725Z,62.70
2018-11-07T07:11:28.207Z,62.80
2018-11-07T07:12:01.867Z,62.70
2018-11-07T07:12:35.366Z,62.80
2018-11-07T07:13:08.888Z,62.60
2018-11-07T07:13:42.374Z,62.80